Aerbrava en el facebook Aerbrava en el twitter Google+ Instagram Aerbrava en el youtube tumblr flikr pinterest
Aerbrava in English aerbrava en Español
Escola de Pilots
Telèfon 972234126 972 23 41 26
 
Aerbrava in English aerbrava en Español
Aerbrava - meteorologia

Informació meteorològica aeronàutica

 

En aquest apartat apareix la informació meteorològica aeronàutica que és utilitzada a les pràctiques dels alumnes de l’Escola de Pilots del nostre centre durant la seva formació, pel que pot no ser actual i s’hauria d’utilitzar pel seu propi compte i risc. AERBRAVA no es fa responsable del seu ús.

 

TEMPS ACTUAL

Satèl·lit Meteorològic

sat24.com

Servei Meteorològic de Catalunya

 

LEGE 252200Z 21005KT 160V250 9999 SCT030 SCT075 15/12 Q1006
LEGE 252130Z 22005KT 190V270 9999 SCT030 SCT075 15/11 Q1006
LEGE 252100Z 21008KT 170V260 9999 -DZ FEW020 SCT055 15/11 Q1006
LEGE 252030Z 21010KT 180V250 9999 -DZ FEW020 SCT055 15/11 Q1006
TAF LEGE 251700Z 2518/2618 18015KT 9999 FEW020 TX17/2612Z TN10/2606Z
BECMG 2521/2523 VRB05KT SCT020
TEMPO 2600/2615 3000 RA BR BKN008
BECMG 2611/2613 02010KT

Aviation Weather

 
Aerbrava en el facebook Aerbrava en el twitter Google+ Instagram Aerbrava en el youtube tumblr flikr pinterest

¡CSS Vàlid!